Time;durP1;ratioP1;P1;durP2;ratioP2;P2;SDS_P1;SDS_P2;PMS_P1;PMS_P2;Temp;Humidity;BMP_temperature;BMP_pressure;BME280_temperature;BME280_humidity;BME280_pressure;Samples;Min_cycle;Max_cycle;Signal;HPM_P1;HPM_P2
2024/04/14 00:01:58;;;;;;;4.30;3.20;;;19.70;84.50;;;;;;5491125;26;20455;-56
2024/04/14 00:04:23;;;;;;;4.70;3.40;;;19.70;83.10;;;;;;5490783;26;20451;-56
2024/04/14 00:06:52;;;;;;;4.23;3.33;;;19.60;82.50;;;;;;5490892;26;20569;-56
2024/04/14 00:09:18;;;;;;;3.90;3.27;;;19.50;80.70;;;;;;5490891;26;20230;-56
2024/04/14 00:11:46;;;;;;;5.80;3.23;;;19.50;82.20;;;;;;5490861;26;20568;-55
2024/04/14 00:14:12;;;;;;;4.27;3.40;;;19.50;82.70;;;;;;5490326;26;20226;-55
2024/04/14 00:16:43;;;;;;;4.67;3.40;;;19.40;83.20;;;;;;5490796;26;20444;-55
2024/04/14 00:19:09;;;;;;;7.37;3.20;;;19.40;83.70;;;;;;5490588;26;20262;-56
2024/04/14 00:21:38;;;;;;;5.20;3.57;;;19.40;83.10;;;;;;5490729;26;20463;-56
2024/04/14 00:24:04;;;;;;;4.30;3.10;;;19.40;82.40;;;;;;5490840;26;20249;-55
2024/04/14 00:26:32;;;;;;;3.47;2.73;;;19.40;81.90;;;;;;5490560;26;21095;-56
2024/04/14 00:28:58;;;;;;;3.53;2.67;;;19.40;80.50;;;;;;5490530;26;20573;-55
2024/04/14 00:31:27;;;;;;;4.20;2.57;;;19.30;78.70;;;;;;5490754;26;20989;-56
2024/04/14 00:33:55;;;;;;;4.03;1.93;;;19.30;77.60;;;;;;5490259;26;20253;-55
2024/04/14 00:36:24;;;;;;;3.00;1.73;;;19.20;75.10;;;;;;5490744;26;20492;-56
2024/04/14 00:38:49;;;;;;;1.80;1.57;;;19.10;73.40;;;;;;5489541;26;20562;-56
2024/04/14 00:41:18;;;;;;;1.93;1.80;;;19.10;73.60;;;;;;5490360;26;20439;-56
2024/04/14 00:43:44;;;;;;;2.30;1.60;;;19.00;72.70;;;;;;5490331;26;20280;-56
2024/04/14 00:46:12;;;;;;;2.20;2.00;;;19.00;72.10;;;;;;5490475;26;20444;-56
2024/04/14 00:48:38;;;;;;;2.20;1.83;;;18.90;70.60;;;;;;5490262;26;20318;-56
2024/04/14 00:51:11;;;;;;;2.60;1.20;;;18.90;69.70;;;;;;5490306;26;20436;-56
2024/04/14 00:53:37;;;;;;;1.50;1.30;;;18.80;69.10;;;;;;5490285;26;20467;-56
2024/04/14 00:56:07;;;;;;;1.60;1.40;;;18.80;66.80;;;;;;5490254;26;20456;-56
2024/04/14 00:58:33;;;;;;;1.90;1.23;;;18.70;66.60;;;;;;5490140;26;20491;-56
2024/04/14 01:01:01;;;;;;;1.33;1.23;;;18.70;63.20;;;;;;5490012;26;20448;-56
2024/04/14 01:03:27;;;;;;;1.73;1.50;;;18.60;63.70;;;;;;5489835;26;20561;-56
2024/04/14 01:05:56;;;;;;;1.00;0.90;;;18.60;63.80;;;;;;5490169;26;20463;-56
2024/04/14 01:08:24;;;;;;;2.90;1.30;;;18.50;63.60;;;;;;5489933;26;20488;-56
2024/04/14 01:10:53;;;;;;;1.67;1.33;;;18.50;63.40;;;;;;5489921;26;20447;-56
2024/04/14 01:13:18;;;;;;;1.47;1.37;;;18.50;63.10;;;;;;5489759;26;21102;-56
2024/04/14 01:15:47;;;;;;;3.97;1.17;;;18.60;62.60;;;;;;5489792;26;20470;-56
2024/04/14 01:18:13;;;;;;;1.33;1.23;;;18.50;62.40;;;;;;5489548;26;20227;-56
2024/04/14 01:20:41;;;;;;;2.57;1.57;;;18.50;62.40;;;;;;5489709;26;20568;-56
2024/04/14 01:23:07;;;;;;;1.53;1.30;;;18.50;62.90;;;;;;5489824;26;20211;-57
2024/04/14 01:25:38;;;;;;;1.63;1.30;;;18.40;62.60;;;;;;5489765;26;20448;-56
2024/04/14 01:28:05;;;;;;;2.10;1.20;;;18.40;58.70;;;;;;5489398;26;20218;-56
2024/04/14 01:30:33;;;;;;;2.10;1.30;;;18.30;59.30;;;;;;5489578;26;20459;-56
2024/04/14 01:32:59;;;;;;;1.50;0.80;;;18.30;59.80;;;;;;5489812;26;20460;-57
2024/04/14 01:35:27;;;;;;;3.80;1.10;;;18.20;57.30;;;;;;5489530;26;20568;-56
2024/04/14 01:37:56;;;;;;;1.37;1.27;;;18.10;57.20;;;;;;5489597;26;20716;-56
2024/04/14 01:40:25;;;;;;;3.83;1.33;;;18.10;56.80;;;;;;5489464;26;20985;-56
2024/04/14 01:42:53;;;;;;;4.00;1.10;;;18.00;56.20;;;;;;5489552;26;20456;-56
2024/04/14 01:45:22;;;;;;;1.30;0.90;;;18.00;55.80;;;;;;5489578;26;20500;-56
2024/04/14 01:47:50;;;;;;;3.00;1.00;;;17.90;54.40;;;;;;5489469;26;20444;-56
2024/04/14 01:50:16;;;;;;;2.47;0.90;;;17.90;55.90;;;;;;5490597;26;20569;-56
2024/04/14 01:52:44;;;;;;;3.10;1.30;;;17.80;54.90;;;;;;5493120;26;20451;-57
2024/04/14 01:55:10;;;;;;;4.20;1.10;;;17.80;54.60;;;;;;5493038;26;20223;-55
2024/04/14 01:57:39;;;;;;;1.63;1.50;;;17.70;53.70;;;;;;5492966;26;20862;-56
2024/04/14 02:00:08;;;;;;;1.30;0.97;;;17.60;53.60;;;;;;5492749;26;20310;-56
2024/04/14 02:02:37;;;;;;;0.80;0.80;;;17.60;54.00;;;;;;5492847;26;20499;-56
2024/04/14 02:05:03;;;;;;;2.00;0.90;;;17.50;54.70;;;;;;5492760;26;21221;-56
2024/04/14 02:07:31;;;;;;;2.70;1.10;;;17.50;54.60;;;;;;5492776;26;21004;-56
2024/04/14 02:10:01;;;;;;;1.37;0.90;;;17.40;54.40;;;;;;5492507;26;20568;-56
2024/04/14 02:12:30;;;;;;;1.80;0.97;;;17.40;55.20;;;;;;5492761;26;20443;-56
2024/04/14 02:14:56;;;;;;;3.27;1.80;;;17.30;55.20;;;;;;5492602;26;20455;-56
2024/04/14 02:17:27;;;;;;;3.30;1.07;;;17.30;55.40;;;;;;5492595;26;21032;-56
2024/04/14 02:19:52;;;;;;;2.40;0.80;;;17.20;55.40;;;;;;5492342;26;20429;-56
2024/04/14 02:22:21;;;;;;;2.20;0.93;;;17.20;55.50;;;;;;5492534;26;20511;-56
2024/04/14 02:24:47;;;;;;;1.17;1.07;;;17.10;55.30;;;;;;5492375;26;20261;-57
2024/04/14 02:27:15;;;;;;;1.50;1.13;;;17.10;56.40;;;;;;5492445;26;20448;-57
2024/04/14 02:29:41;;;;;;;2.97;1.27;;;17.00;56.30;;;;;;5492221;26;20251;-57
2024/04/14 02:32:10;;;;;;;3.80;1.27;;;17.00;56.70;;;;;;5492492;26;20965;-57
2024/04/14 02:34:40;;;;;;;2.10;1.60;;;17.00;57.30;;;;;;5492359;26;20226;-57
2024/04/14 02:37:08;;;;;;;2.97;1.23;;;17.00;57.40;;;;;;5492309;26;20568;-57
2024/04/14 02:39:34;;;;;;;3.03;1.33;;;16.90;57.40;;;;;;5491982;26;20467;-57
2024/04/14 02:42:03;;;;;;;2.40;0.73;;;16.90;57.60;;;;;;5492043;26;21008;-56
2024/04/14 02:44:29;;;;;;;3.33;1.57;;;16.90;57.40;;;;;;5491960;26;20219;-56
2024/04/14 02:46:57;;;;;;;2.23;1.60;;;16.90;57.60;;;;;;5492028;26;20569;-57
2024/04/14 02:49:24;;;;;;;3.30;1.30;;;16.90;57.90;;;;;;5492106;26;20824;-56
2024/04/14 02:51:55;;;;;;;2.10;1.10;;;16.80;58.20;;;;;;5492092;26;20561;-57
2024/04/14 02:54:21;;;;;;;2.53;1.33;;;16.80;58.30;;;;;;5491978;26;20993;-57
2024/04/14 02:56:50;;;;;;;1.30;1.20;;;16.80;58.20;;;;;;5492036;26;20500;-56
2024/04/14 02:59:16;;;;;;;6.50;1.40;;;16.80;58.60;;;;;;5492000;26;20475;-57
2024/04/14 03:01:44;;;;;;;2.37;1.50;;;16.80;58.90;;;;;;5491449;26;20564;-56
2024/04/14 03:04:10;;;;;;;3.70;1.53;;;16.70;59.10;;;;;;5491790;26;20214;-57
2024/04/14 03:06:38;;;;;;;1.20;1.10;;;16.70;58.40;;;;;;5491816;26;20569;-56
2024/04/14 03:09:07;;;;;;;3.40;1.67;;;16.60;58.40;;;;;;5491523;26;20331;-57
2024/04/14 03:11:35;;;;;;;2.63;1.03;;;16.60;59.10;;;;;;5491744;26;20813;-57
2024/04/14 03:14:01;;;;;;;2.73;1.17;;;16.60;59.10;;;;;;5491596;26;20555;-56
2024/04/14 03:16:30;;;;;;;3.50;1.60;;;16.60;59.90;;;;;;5491632;26;20448;-56
2024/04/14 03:18:55;;;;;;;2.53;1.47;;;16.60;60.60;;;;;;5491575;26;20953;-57
2024/04/14 03:21:24;;;;;;;3.07;1.80;;;16.70;59.90;;;;;;5491670;26;20487;-56
2024/04/14 03:23:50;;;;;;;2.53;1.03;;;16.60;59.40;;;;;;5491616;26;20222;-57
2024/04/14 03:26:21;;;;;;;5.10;1.80;;;16.50;60.00;;;;;;5491636;26;20447;-57
2024/04/14 03:28:47;;;;;;;2.60;1.80;;;16.50;60.70;;;;;;5491599;26;20665;-57
2024/04/14 03:31:15;;;;;;;3.20;1.63;;;16.40;61.10;;;;;;5491341;26;20569;-56
2024/04/14 03:33:41;;;;;;;2.30;1.73;;;16.40;61.90;;;;;;5491537;26;20314;-57
2024/04/14 03:36:10;;;;;;;5.67;1.50;;;16.30;62.40;;;;;;5491386;26;20456;-57
2024/04/14 03:38:38;;;;;;;6.90;2.00;;;16.30;63.00;;;;;;5491748;26;20301;-57
2024/04/14 03:41:07;;;;;;;5.00;1.70;;;16.30;63.40;;;;;;5492797;26;20504;-57
2024/04/14 03:43:38;;;;;;;4.70;2.20;;;16.30;63.60;;;;;;5492703;26;20507;-57
2024/04/14 03:46:06;;;;;;;2.70;1.80;;;16.20;64.30;;;;;;5492340;26;20562;-56
2024/04/14 03:48:35;;;;;;;2.20;1.73;;;16.20;64.40;;;;;;5491029;26;20459;-56
2024/04/14 03:51:00;;;;;;;5.20;2.03;;;16.20;64.70;;;;;;5491272;26;20485;-57
2024/04/14 03:53:29;;;;;;;3.10;1.73;;;16.10;65.20;;;;;;5491091;26;20572;-56
2024/04/14 03:55:55;;;;;;;4.07;2.00;;;16.10;65.20;;;;;;5491087;26;20257;-56
2024/04/14 03:58:23;;;;;;;4.97;1.90;;;16.10;64.90;;;;;;5490956;26;20475;-56
2024/04/14 04:00:52;;;;;;;3.63;1.90;;;16.00;65.20;;;;;;5491064;26;20459;-56
2024/04/14 04:03:20;;;;;;;3.57;2.10;;;16.00;65.70;;;;;;5490785;26;20965;-56
2024/04/14 04:05:54;;;;;;;3.90;2.53;;;15.90;66.30;;;;;;5490844;26;20565;-57
2024/04/14 04:08:22;;;;;;;4.83;2.10;;;15.90;67.20;;;;;;5490969;26;20581;-57
2024/04/14 04:10:58;;;;;;;3.20;2.07;;;15.90;68.10;;;;;;5491225;26;20452;-57
2024/04/14 04:13:26;;;;;;;4.30;1.80;;;15.80;68.90;;;;;;5489622;26;20506;-57
2024/04/14 04:15:57;;;;;;;5.43;2.53;;;15.80;70.20;;;;;;5490799;26;20447;-57
2024/04/14 04:18:25;;;;;;;6.27;2.33;;;15.80;70.00;;;;;;5490725;26;20970;-57
2024/04/14 04:20:54;;;;;;;3.23;2.00;;;15.70;70.00;;;;;;5490743;26;20988;-57
2024/04/14 04:23:23;;;;;;;5.30;2.50;;;15.70;69.80;;;;;;5490697;26;20516;-57
2024/04/14 04:25:49;;;;;;;3.50;2.57;;;15.70;70.00;;;;;;5490810;26;20443;-57
2024/04/14 04:28:17;;;;;;;4.73;2.63;;;15.80;70.00;;;;;;5490693;26;20455;-57
2024/04/14 04:30:43;;;;;;;3.03;2.03;;;15.80;70.40;;;;;;5490377;26;20510;-56
2024/04/14 04:33:14;;;;;;;3.53;2.60;;;15.80;69.30;;;;;;5490667;26;20957;-56
2024/04/14 04:35:49;;;;;;;2.40;1.77;;;15.70;69.40;;;;;;5490547;26;20302;-57
2024/04/14 04:38:18;;;;;;;7.13;2.27;;;15.70;69.50;;;;;;5490315;26;20502;-57
2024/04/14 04:40:43;;;;;;;3.00;2.07;;;15.70;69.70;;;;;;5490409;26;20452;-56
2024/04/14 04:43:12;;;;;;;6.27;2.20;;;15.70;70.10;;;;;;5490319;26;20546;-57
2024/04/14 04:45:38;;;;;;;2.87;1.87;;;15.70;70.60;;;;;;5490308;26;20222;-56
2024/04/14 04:48:07;;;;;;;2.40;2.10;;;15.60;70.20;;;;;;5490522;26;20491;-57
2024/04/14 04:50:36;;;;;;;4.60;2.53;;;15.60;71.10;;;;;;5490422;26;20218;-56
2024/04/14 04:53:04;;;;;;;5.83;3.03;;;15.60;71.60;;;;;;5490487;26;20440;-57
2024/04/14 04:55:30;;;;;;;6.17;2.77;;;15.60;72.00;;;;;;5490093;26;20455;-56
2024/04/14 04:57:59;;;;;;;5.90;2.70;;;15.60;72.40;;;;;;5490148;26;20577;-56
2024/04/14 05:00:25;;;;;;;6.47;2.77;;;15.50;73.20;;;;;;5490177;26;20226;-56
2024/04/14 05:02:53;;;;;;;4.70;2.47;;;15.50;73.70;;;;;;5490001;26;20530;-56
2024/04/14 05:05:19;;;;;;;6.17;2.53;;;15.50;73.60;;;;;;5489947;26;20265;-56
2024/04/14 05:07:50;;;;;;;6.40;2.77;;;15.50;73.00;;;;;;5490126;26;20507;-57
2024/04/14 05:10:16;;;;;;;6.13;2.80;;;15.50;73.50;;;;;;5489947;26;20527;-57
2024/04/14 05:12:45;;;;;;;5.87;2.60;;;15.50;73.80;;;;;;5490136;26;20451;-57
2024/04/14 05:15:11;;;;;;;7.70;3.00;;;15.50;74.10;;;;;;5489931;26;20214;-56
2024/04/14 05:17:39;;;;;;;3.73;2.83;;;15.60;74.70;;;;;;5489892;26;21095;-56
2024/04/14 05:20:06;;;;;;;6.20;3.20;;;15.60;74.90;;;;;;5489925;26;20226;-57
2024/04/14 05:22:35;;;;;;;5.73;2.47;;;15.60;75.10;;;;;;5489821;26;20557;-57
2024/04/14 05:25:04;;;;;;;3.40;3.10;;;15.60;75.10;;;;;;5489598;26;20455;-57
2024/04/14 05:27:32;;;;;;;6.73;2.97;;;15.60;75.40;;;;;;5489876;26;20993;-57
2024/04/14 05:29:58;;;;;;;5.83;3.40;;;15.60;75.60;;;;;;5489768;26;20573;-57
2024/04/14 05:32:26;;;;;;;3.90;3.27;;;15.60;75.70;;;;;;5489591;26;20961;-56
2024/04/14 05:34:52;;;;;;;3.63;3.20;;;15.60;75.80;;;;;;5489679;26;20226;-56
2024/04/14 05:37:21;;;;;;;6.63;2.97;;;15.60;75.90;;;;;;5489576;26;21072;-56
2024/04/14 05:39:46;;;;;;;7.13;3.37;;;15.70;76.30;;;;;;5489332;26;20234;-56
2024/04/14 05:42:17;;;;;;;6.50;2.90;;;15.70;76.20;;;;;;5489432;26;20452;-56
2024/04/14 05:44:46;;;;;;;5.03;3.00;;;15.70;76.40;;;;;;5489536;26;20279;-56
2024/04/14 05:47:14;;;;;;;7.20;3.37;;;15.70;76.60;;;;;;5489508;26;20502;-56
2024/04/14 05:49:40;;;;;;;7.73;3.70;;;15.70;76.80;;;;;;5489544;26;21017;-56
2024/04/14 05:52:08;;;;;;;6.60;3.43;;;15.70;77.00;;;;;;5489240;26;20451;-57
2024/04/14 05:54:34;;;;;;;5.97;3.23;;;15.80;77.10;;;;;;5489248;26;20254;-56
2024/04/14 05:57:03;;;;;;;8.73;3.70;;;15.80;77.30;;;;;;5489147;26;20456;-56
2024/04/14 05:59:31;;;;;;;6.70;4.23;;;15.90;77.10;;;;;;5489226;26;20459;-57
2024/04/14 06:02:00;;;;;;;6.30;4.00;;;15.90;77.20;;;;;;5489078;26;20459;-56
2024/04/14 06:04:25;;;;;;;10.77;3.90;;;15.90;77.80;;;;;;5489089;26;20463;-56
2024/04/14 06:06:54;;;;;;;7.87;4.00;;;15.90;78.10;;;;;;5488896;26;20439;-57
2024/04/14 06:09:21;;;;;;;5.03;3.63;;;16.00;78.30;;;;;;5488877;26;20230;-56
2024/04/14 06:11:49;;;;;;;7.27;3.67;;;15.90;78.50;;;;;;5488977;26;20448;-57
2024/04/14 06:14:15;;;;;;;6.60;3.63;;;15.90;78.50;;;;;;5488893;26;20563;-56
2024/04/14 06:16:46;;;;;;;9.50;4.00;;;15.90;78.40;;;;;;5489036;26;20459;-56
2024/04/14 06:19:13;;;;;;;10.73;4.00;;;15.90;79.10;;;;;;5488882;26;20234;-57
2024/04/14 06:21:41;;;;;;;17.17;4.90;;;15.90;79.50;;;;;;5488702;26;20507;-56
2024/04/14 06:24:07;;;;;;;5.90;3.90;;;15.90;79.10;;;;;;5488586;26;20537;-56
2024/04/14 06:26:36;;;;;;;6.47;4.33;;;16.00;79.90;;;;;;5488758;26;20498;-56
2024/04/14 06:29:03;;;;;;;10.23;5.00;;;16.00;79.60;;;;;;5488656;26;20937;-57
2024/04/14 06:31:31;;;;;;;8.97;4.53;;;16.00;79.70;;;;;;5488528;26;20447;-56
2024/04/14 06:34:00;;;;;;;8.20;4.60;;;16.10;80.30;;;;;;5488420;26;20283;-56
2024/04/14 06:36:28;;;;;;;11.03;5.37;;;16.10;80.30;;;;;;5490041;26;20795;-56
2024/04/14 06:38:54;;;;;;;13.13;4.97;;;16.20;80.40;;;;;;5492136;26;20825;-57
2024/04/14 06:41:23;;;;;;;11.23;5.50;;;16.20;80.50;;;;;;5492179;26;20503;-57
2024/04/14 06:43:49;;;;;;;11.93;5.20;;;16.20;80.60;;;;;;5491988;26;20214;-56
2024/04/14 06:46:18;;;;;;;6.47;4.50;;;16.20;80.80;;;;;;5492177;26;20516;-57
2024/04/14 06:48:45;;;;;;;13.57;4.80;;;16.20;81.30;;;;;;5492133;26;20279;-57
2024/04/14 06:51:16;;;;;;;8.10;4.87;;;16.20;81.40;;;;;;5491926;26;20455;-57
2024/04/14 06:53:42;;;;;;;9.90;4.87;;;16.20;81.00;;;;;;5492070;26;20505;-56
2024/04/14 06:56:10;;;;;;;9.70;4.50;;;16.30;81.40;;;;;;5492012;26;20439;-56
2024/04/14 06:58:36;;;;;;;12.27;4.50;;;16.30;81.20;;;;;;5491536;26;20310;-56
2024/04/14 07:01:05;;;;;;;10.83;4.73;;;16.40;80.90;;;;;;5491946;26;20447;-57
2024/04/14 07:03:30;;;;;;;8.17;4.30;;;16.30;80.70;;;;;;5491529;26;20214;-56
2024/04/14 07:06:00;;;;;;;11.17;5.23;;;16.30;80.60;;;;;;5491714;26;20495;-57
2024/04/14 07:08:29;;;;;;;11.97;4.47;;;16.30;81.50;;;;;;5491721;26;20231;-56
2024/04/14 07:10:57;;;;;;;7.73;4.57;;;16.40;81.50;;;;;;5491929;26;20440;-56
2024/04/14 07:13:23;;;;;;;8.73;4.10;;;16.50;80.70;;;;;;5491687;26;20511;-56
2024/04/14 07:15:51;;;;;;;7.00;3.90;;;16.50;79.70;;;;;;5491652;26;20451;-57
2024/04/14 07:18:20;;;;;;;11.20;5.00;;;16.60;80.60;;;;;;5491618;26;20318;-57
2024/04/14 07:20:45;;;;;;;9.20;4.13;;;16.60;80.00;;;;;;5491663;26;20977;-56
2024/04/14 07:23:14;;;;;;;9.57;5.17;;;16.60;79.40;;;;;;5491119;26;20500;-57
2024/04/14 07:25:42;;;;;;;8.87;4.50;;;16.60;79.70;;;;;;5491404;26;20218;-56
2024/04/14 07:28:11;;;;;;;10.27;4.47;;;16.70;79.70;;;;;;5491424;26;20499;-57
2024/04/14 07:30:37;;;;;;;8.10;4.57;;;16.80;79.50;;;;;;5491385;26;20452;-57
2024/04/14 07:33:05;;;;;;;10.03;4.33;;;16.90;78.50;;;;;;5491609;26;20938;-57
2024/04/14 07:35:31;;;;;;;11.60;4.90;;;16.90;78.60;;;;;;5491407;26;20231;-56
2024/04/14 07:37:59;;;;;;;9.33;3.90;;;16.90;77.70;;;;;;5491519;26;20561;-57
2024/04/14 07:40:25;;;;;;;9.93;3.73;;;16.90;77.50;;;;;;5491430;26;20218;-56
2024/04/14 07:42:56;;;;;;;8.80;4.30;;;17.00;77.50;;;;;;5491129;26;20502;-57
2024/04/14 07:45:22;;;;;;;7.93;4.23;;;17.10;77.10;;;;;;5491536;26;20235;-57
2024/04/14 07:47:50;;;;;;;8.03;4.63;;;17.20;77.40;;;;;;5489383;26;21071;-56
2024/04/14 07:50:16;;;;;;;10.17;4.63;;;17.30;77.30;;;;;;5491122;26;20322;-57
2024/04/14 07:52:45;;;;;;;8.30;3.97;;;17.40;75.30;;;;;;5491216;26;20534;-56
2024/04/14 07:55:10;;;;;;;7.20;4.40;;;17.50;75.10;;;;;;5491309;26;20331;-57
2024/04/14 07:57:39;;;;;;;8.33;3.77;;;17.60;74.10;;;;;;5491248;26;20444;-57
2024/04/14 08:00:09;;;;;;;6.00;2.93;;;17.70;74.30;;;;;;5491077;26;20226;-57
2024/04/14 08:02:38;;;;;;;9.20;4.13;;;17.90;73.50;;;;;;5491128;26;20452;-57
2024/04/14 08:05:04;;;;;;;6.87;3.70;;;18.00;73.30;;;;;;5491027;26;20444;-56
2024/04/14 08:07:32;;;;;;;7.87;3.37;;;18.00;72.20;;;;;;5491418;26;20545;-57
2024/04/14 08:09:58;;;;;;;7.57;3.30;;;18.10;71.90;;;;;;5490954;26;20505;-57
2024/04/14 08:12:28;;;;;;;10.93;3.60;;;18.00;72.10;;;;;;5491073;26;20451;-57
2024/04/14 08:14:53;;;;;;;8.10;4.27;;;18.10;71.60;;;;;;5490904;26;20606;-57
2024/04/14 08:17:25;;;;;;;8.00;3.70;;;18.20;70.40;;;;;;5490838;26;20493;-57
2024/04/14 08:19:52;;;;;;;10.63;4.00;;;18.20;71.20;;;;;;5490707;26;20330;-57
2024/04/14 08:22:20;;;;;;;7.20;4.30;;;18.30;71.60;;;;;;5490896;26;20503;-57
2024/04/14 08:24:46;;;;;;;9.40;3.70;;;18.40;70.50;;;;;;5490670;26;20811;-57
2024/04/14 08:27:15;;;;;;;8.50;3.40;;;18.50;70.50;;;;;;5490754;26;20561;-57
2024/04/14 08:29:41;;;;;;;10.77;4.03;;;18.50;70.10;;;;;;5490636;26;20721;-57
2024/04/14 08:32:10;;;;;;;9.33;4.87;;;18.60;70.20;;;;;;5490557;26;20444;-56
2024/04/14 08:34:38;;;;;;;4.80;3.70;;;18.70;70.70;;;;;;5490797;26;20459;-57
2024/04/14 08:37:07;;;;;;;11.03;4.40;;;18.90;70.90;;;;;;5490722;26;20508;-56
2024/04/14 08:39:33;;;;;;;7.80;4.10;;;19.10;69.90;;;;;;5490510;26;20644;-57
2024/04/14 08:42:02;;;;;;;11.90;4.00;;;19.30;68.80;;;;;;5490654;26;20451;-57
2024/04/14 08:44:28;;;;;;;10.63;3.80;;;19.40;68.00;;;;;;5490544;26;20588;-57
2024/04/14 08:46:58;;;;;;;6.63;3.70;;;19.40;65.70;;;;;;5490714;26;20543;-57
2024/04/14 08:49:25;;;;;;;7.03;3.80;;;19.50;66.30;;;;;;5490391;26;20508;-57
2024/04/14 08:51:58;;;;;;;10.07;3.63;;;19.60;66.10;;;;;;5490219;26;20540;-57
2024/04/14 08:54:24;;;;;;;5.50;3.20;;;19.70;65.10;;;;;;5489223;26;20553;-56
2024/04/14 08:56:57;;;;;;;7.10;3.20;;;19.80;61.60;;;;;;5490124;26;20467;-56
2024/04/14 08:59:24;;;;;;;8.13;3.30;;;19.80;60.40;;;;;;5489645;26;20366;-57
2024/04/14 09:01:53;;;;;;;5.73;2.33;;;19.90;59.80;;;;;;5489777;26;20448;-57
2024/04/14 09:04:20;;;;;;;4.47;1.90;;;20.00;57.70;;;;;;5489953;26;20459;-57
2024/04/14 09:06:50;;;;;;;6.27;2.53;;;20.10;57.80;;;;;;5489895;26;20667;-57
2024/04/14 09:09:18;;;;;;;6.27;2.20;;;20.30;57.00;;;;;;5489791;26;21072;-57
2024/04/14 09:11:52;;;;;;;4.90;2.53;;;20.40;56.00;;;;;;5489897;26;20520;-57
2024/04/14 09:14:18;;;;;;;5.33;2.40;;;20.60;56.70;;;;;;5489904;26;20534;-57
2024/04/14 09:16:46;;;;;;;3.53;1.97;;;20.90;56.50;;;;;;5489800;26;20515;-56
2024/04/14 09:19:12;;;;;;;3.90;2.20;;;21.00;53.90;;;;;;5489840;26;20273;-57
2024/04/14 09:21:41;;;;;;;3.63;1.57;;;21.20;54.70;;;;;;5489763;26;20459;-57
2024/04/14 09:24:07;;;;;;;5.90;2.00;;;21.20;52.20;;;;;;5489566;26;20219;-57
2024/04/14 09:26:38;;;;;;;4.43;2.27;;;21.20;52.90;;;;;;5489887;26;20880;-56
2024/04/14 09:29:05;;;;;;;6.27;2.10;;;21.10;53.30;;;;;;5490122;26;20779;-56
2024/04/14 09:31:34;;;;;;;5.10;2.40;;;21.00;53.80;;;;;;5489458;26;20510;-56
2024/04/14 09:34:02;;;;;;;4.90;2.00;;;21.00;54.00;;;;;;5489410;26;20523;-56
2024/04/14 09:36:31;;;;;;;3.30;1.93;;;20.80;53.40;;;;;;5489508;26;21046;-56
2024/04/14 09:38:59;;;;;;;5.43;2.17;;;20.70;53.60;;;;;;5489372;26;20464;-56
2024/04/14 09:41:28;;;;;;;6.23;2.30;;;20.60;53.60;;;;;;5489780;26;21064;-56
2024/04/14 09:43:59;;;;;;;3.70;2.43;;;20.60;54.30;;;;;;5489307;26;20511;-56
2024/04/14 09:46:32;;;;;;;5.53;2.30;;;20.60;54.90;;;;;;5489356;26;20534;-56
2024/04/14 09:48:58;;;;;;;5.53;2.43;;;20.70;55.20;;;;;;5489334;26;20577;-56
2024/04/14 09:51:29;;;;;;;4.60;2.17;;;20.80;54.50;;;;;;5489331;26;20455;-56
2024/04/14 09:53:58;;;;;;;3.63;2.17;;;20.90;53.80;;;;;;5489178;26;20463;-56
2024/04/14 09:56:27;;;;;;;4.17;2.20;;;21.00;54.30;;;;;;5489312;26;20826;-56
2024/04/14 09:58:56;;;;;;;5.13;2.20;;;21.10;53.90;;;;;;5489179;26;20463;-57
2024/04/14 10:01:28;;;;;;;5.00;2.70;;;21.30;52.90;;;;;;5489271;26;21118;-56
2024/04/14 10:03:56;;;;;;;4.20;1.93;;;21.40;52.10;;;;;;5489151;26;20455;-56
2024/04/14 10:06:27;;;;;;;2.50;1.80;;;21.40;52.40;;;;;;5489109;26;20520;-56
2024/04/14 10:08:53;;;;;;;7.70;3.10;;;21.50;53.30;;;;;;5489059;26;20850;-57
2024/04/14 10:11:22;;;;;;;6.00;2.90;;;21.50;52.80;;;;;;5490279;26;20496;-56
2024/04/14 10:13:49;;;;;;;5.73;3.00;;;21.50;53.40;;;;;;5492628;26;20451;-56
2024/04/14 10:16:23;;;;;;;7.30;2.50;;;21.60;53.10;;;;;;5492708;26;20443;-56
2024/04/14 10:18:49;;;;;;;5.33;2.20;;;21.60;53.70;;;;;;5492595;26;20561;-56
2024/04/14 10:21:21;;;;;;;5.57;2.40;;;21.80;53.40;;;;;;5492604;26;20455;-56
2024/04/14 10:23:48;;;;;;;4.40;2.90;;;21.80;52.40;;;;;;5492550;26;20447;-56
2024/04/14 10:26:17;;;;;;;6.53;3.07;;;21.60;52.70;;;;;;5492420;26;21040;-56
2024/04/14 10:28:49;;;;;;;5.40;2.33;;;21.40;51.80;;;;;;5492458;26;20515;-56
2024/04/14 10:31:30;;;;;;;6.17;2.80;;;21.20;54.50;;;;;;5492454;26;20451;-56
2024/04/14 10:34:04;;;;;;;7.30;3.10;;;21.10;53.10;;;;;;5492368;26;20455;-57
2024/04/14 10:36:33;;;;;;;5.83;3.27;;;20.70;53.80;;;;;;5492429;26;20442;-57
2024/04/14 10:38:59;;;;;;;12.13;4.20;;;20.60;54.80;;;;;;5491475;26;20463;-57
2024/04/14 10:41:28;;;;;;;7.37;3.47;;;20.40;56.00;;;;;;5491697;26;20495;-56
2024/04/14 10:43:53;;;;;;;8.90;4.50;;;20.40;56.90;;;;;;5492061;26;20245;-57
2024/04/14 10:46:22;;;;;;;7.80;3.80;;;20.60;56.90;;;;;;5491932;26;20447;-56
2024/04/14 10:48:50;;;;;;;6.87;3.73;;;20.90;56.60;;;;;;5491887;26;20310;-57
2024/04/14 10:51:19;;;;;;;4.73;2.77;;;21.10;55.60;;;;;;5492014;26;20572;-57
2024/04/14 10:53:46;;;;;;;7.00;3.10;;;21.30;54.90;;;;;;5491633;26;20569;-57
2024/04/14 10:56:14;;;;;;;7.70;3.43;;;21.50;54.90;;;;;;5491921;26;20546;-57
2024/04/14 10:58:40;;;;;;;4.63;2.60;;;21.70;53.50;;;;;;5491973;26;20467;-57
2024/04/14 11:01:09;;;;;;;5.10;2.47;;;21.80;53.10;;;;;;5492077;26;20565;-57
2024/04/14 11:03:35;;;;;;;8.10;2.97;;;21.90;52.80;;;;;;5491562;26;20611;-56
2024/04/14 11:06:07;;;;;;;5.00;3.10;;;22.10;53.80;;;;;;5491769;26;20458;-56
2024/04/14 11:08:34;;;;;;;4.73;2.10;;;22.30;53.30;;;;;;5492001;26;20475;-56
2024/04/14 11:11:03;;;;;;;7.00;2.23;;;22.50;50.80;;;;;;5491866;26;20495;-56
2024/04/14 11:13:29;;;;;;;7.13;2.67;;;22.60;51.30;;;;;;5491510;26;20513;-56
2024/04/14 11:15:59;;;;;;;6.93;2.33;;;23.00;52.40;;;;;;5491685;26;20981;-56
2024/04/14 11:18:28;;;;;;;4.57;2.20;;;23.20;50.20;;;;;;5491887;26;20475;-57
2024/04/14 11:20:56;;;;;;;4.80;2.20;;;23.30;50.20;;;;;;5491915;26;20447;-56
2024/04/14 11:23:27;;;;;;;4.13;2.60;;;23.70;50.60;;;;;;5491562;26;20459;-58
2024/04/14 11:25:56;;;;;;;3.70;2.60;;;24.30;47.40;;;;;;5491828;26;20452;-56
2024/04/14 11:28:22;;;;;;;6.30;2.80;;;24.90;47.30;;;;;;5492250;26;20471;-56
2024/04/14 11:30:51;;;;;;;3.73;2.50;;;25.40;46.30;;;;;;5491541;26;21029;-56
2024/04/14 11:33:20;;;;;;;3.33;1.93;;;26.00;44.70;;;;;;5491927;26;20215;-57
2024/04/14 11:35:49;;;;;;;3.80;1.93;;;26.30;42.20;;;;;;5491895;26;20452;-56
2024/04/14 11:38:16;;;;;;;2.63;1.67;;;27.00;42.00;;;;;;5491872;26;20451;-57
2024/04/14 11:40:47;;;;;;;3.47;2.40;;;27.70;40.60;;;;;;5491471;26;20499;-57
2024/04/14 11:43:12;;;;;;;5.17;2.20;;;27.90;39.80;;;;;;5491450;26;20463;-56
2024/04/14 11:45:49;;;;;;;5.03;2.30;;;28.00;38.80;;;;;;5491312;26;20561;-57
2024/04/14 11:48:17;;;;;;;4.00;2.77;;;28.00;38.20;;;;;;5491378;26;20206;-57
2024/04/14 11:50:45;;;;;;;4.90;2.17;;;27.60;37.70;;;;;;5491361;26;20455;-57
2024/04/14 11:53:11;;;;;;;5.43;2.00;;;27.10;38.70;;;;;;5491132;26;20496;-57
2024/04/14 11:55:40;;;;;;;4.90;2.80;;;26.30;38.80;;;;;;5491042;26;20460;-57
2024/04/14 11:58:08;;;;;;;4.17;2.33;;;25.80;39.80;;;;;;5491036;26;20697;-56
2024/04/14 12:00:37;;;;;;;6.60;2.57;;;25.80;41.00;;;;;;5491473;26;20451;-56
2024/04/14 12:03:03;;;;;;;3.87;2.00;;;26.50;39.70;;;;;;5490970;26;20972;-57
2024/04/14 12:05:31;;;;;;;6.47;2.60;;;27.00;37.60;;;;;;5490773;26;20500;-56
2024/04/14 12:07:58;;;;;;;5.43;2.97;;;27.60;36.80;;;;;;5491150;26;20218;-57
2024/04/14 12:10:27;;;;;;;4.40;2.23;;;28.00;36.10;;;;;;5490916;26;20524;-57
2024/04/14 12:12:52;;;;;;;5.30;2.70;;;28.70;36.10;;;;;;5490982;26;20444;-57
2024/04/14 12:15:24;;;;;;;3.93;2.53;;;28.90;35.50;;;;;;5490732;26;20561;-57
2024/04/14 12:17:49;;;;;;;6.83;2.57;;;29.10;34.50;;;;;;5490865;26;20237;-57
2024/04/14 12:20:18;;;;;;;5.20;2.67;;;29.60;34.10;;;;;;5490794;26;20451;-57
2024/04/14 12:22:44;;;;;;;4.57;2.60;;;29.70;33.50;;;;;;5490801;26;20245;-57
2024/04/14 12:25:12;;;;;;;6.50;2.37;;;29.20;33.10;;;;;;5490698;26;20459;-57
2024/04/14 12:27:38;;;;;;;2.43;1.50;;;28.70;34.50;;;;;;5490924;26;20218;-57
2024/04/14 12:30:07;;;;;;;3.40;1.90;;;28.30;34.10;;;;;;5490787;26;20874;-56
2024/04/14 12:32:36;;;;;;;11.17;2.40;;;27.90;35.80;;;;;;5490596;26;20302;-57
2024/04/14 12:35:05;;;;;;;3.60;2.03;;;27.40;36.10;;;;;;5489737;26;20537;-57
2024/04/14 12:37:31;;;;;;;4.77;1.83;;;26.70;36.50;;;;;;5490572;26;20447;-56
2024/04/14 12:39:59;;;;;;;6.73;2.20;;;26.80;35.40;;;;;;5490487;26;20541;-56
2024/04/14 12:42:25;;;;;;;2.93;2.40;;;27.30;35.50;;;;;;5490619;26;20636;-57
2024/04/14 12:44:54;;;;;;;5.00;2.00;;;27.80;35.10;;;;;;5490840;26;20452;-56
2024/04/14 12:47:20;;;;;;;4.27;1.70;;;28.20;33.10;;;;;;5490668;26;20219;-55
2024/04/14 12:49:51;;;;;;;4.07;1.63;;;28.40;32.70;;;;;;5490767;26;20977;-55